Ana Sayfa
METAR-TAF:

METAR-TAF

Havaalanları :

Chatham-Kent Municipal Airport

Chatham-Kent, Ontario, Kanada

Enlem: 42-18-22N, Boylam: 82-04-54W, yükseklik: 197 m

Güncel hava durumu gözlemi

Rapor saat 04:00 UTC de 58 dakika önce yapıldı.
Rüzgar güney/güneybatıdan 6 kt
Sıcaklık 24°C
Nem 83%
Basınç 1017 hPa
Görüş mesafesi: 14.5 km
5500 ft yükseklikte az bulutlu
17000 ft yükseklikte parçalı çok bulutlu

METAR: CYCK 160400Z AUTO 20006KT 9SM FEW055 BKN170 24/21 A3002 RMK SLP163 DENSITY ALT 1600FT

Saat: 00:58 (04:58 UTC)


TAF: eksik

4.000'den fazla havaalanı için hava durumu gözlemleri ve tahminleri (METAR ve TAF raporları).

Kullanılabilir istasyonlar harita üzerinde sarı ve kırmızı noktalarla gösterilir.

İstasyonun adını görmek için fareyi noktanın üzerinde gezdirin.

Sonrasında hava gözlem ve tahminlerini görmek için tıklayın.

Haritayı değiştirmek için: yaklaştırmak için siyah artı işaretli yeşil düğmeye ve uzaklaştırmak için de eksi işaretli düğmeye hızla tıklayın; bitişik haritalar için yeşil okları kullanın.


METAR-TAF: